Time;durP1;ratioP1;P1;durP2;ratioP2;P2;SDS_P1;SDS_P2;PMS_P1;PMS_P2;Temp;Humidity;BMP_temperature;BMP_pressure;BME280_temperature;BME280_humidity;BME280_pressure;Samples;Min_cycle;Max_cycle;Signal;HPM_P1;HPM_P2
2022/06/28 00:01:28;;;;;;;15.75;7.93;;;;;;;;;;5047534;28;20160;-80
2022/06/28 00:07:18;;;;;;;16.50;8.38;;;;;;;;;;5054232;28;20040;-80
2022/06/28 00:09:45;;;;;;;16.88;8.38;;;;;;;;;;5054137;28;20398;-80
2022/06/28 00:12:13;;;;;;;25.90;8.05;;;;;;;;;;5050459;28;20875;-80
2022/06/28 00:17:26;;;;;;;18.15;7.82;;;;;;;;;;5049598;28;20048;-80
2022/06/28 00:19:53;;;;;;;15.90;6.97;;;;;;;;;;5053109;28;20107;-80
2022/06/28 00:22:20;;;;;;;17.38;7.88;;;;;;;;;;5049697;28;20543;-80
2022/06/28 00:24:48;;;;;;;16.52;5.70;;;;;;;;;;5054677;28;20095;-80
2022/06/28 00:27:15;;;;;;;11.75;5.35;;;;;;;;;;5041695;28;20143;-80
2022/06/28 00:29:42;;;;;;;14.50;5.35;;;;;;;;;;5039810;28;20164;-81
2022/06/28 00:32:10;;;;;;;12.75;5.10;;;;;;;;;;5048197;28;20049;-80
2022/06/28 00:34:37;;;;;;;8.55;4.72;;;;;;;;;;5052809;28;20056;-81
2022/06/28 00:37:05;;;;;;;17.13;5.82;;;;;;;;;;5053431;28;20069;-80
2022/06/28 00:39:32;;;;;;;10.45;4.28;;;;;;;;;;5055054;28;20061;-80
2022/06/28 00:41:59;;;;;;;11.05;3.63;;;;;;;;;;5051176;28;20142;-79
2022/06/28 00:44:27;;;;;;;7.57;4.00;;;;;;;;;;5059087;28;20126;-80
2022/06/28 00:46:55;;;;;;;8.85;3.53;;;;;;;;;;5051891;28;20164;-80
2022/06/28 00:49:23;;;;;;;10.18;4.00;;;;;;;;;;5051946;28;20062;-80
2022/06/28 00:51:51;;;;;;;11.02;3.15;;;;;;;;;;5049392;28;21229;-79
2022/06/28 00:54:18;;;;;;;6.80;3.17;;;;;;;;;;5052830;28;20084;-79
2022/06/28 00:56:45;;;;;;;11.63;3.40;;;;;;;;;;5063102;28;20085;-79
2022/06/28 00:59:13;;;;;;;9.88;3.00;;;;;;;;;;5052650;28;20157;-80
2022/06/28 01:01:40;;;;;;;8.82;2.70;;;;;;;;;;5048465;28;20080;-80
2022/06/28 01:04:07;;;;;;;5.53;3.20;;;;;;;;;;5059745;28;20048;-80
2022/06/28 01:06:37;;;;;;;6.20;2.72;;;;;;;;;;5047793;28;20148;-80
2022/06/28 01:09:05;;;;;;;9.23;3.50;;;;;;;;;;5048451;28;20165;-80
2022/06/28 01:11:33;;;;;;;5.50;2.65;;;;;;;;;;5049511;28;20048;-79
2022/06/28 01:14:09;;;;;;;6.15;2.70;;;;;;;;;;5060307;28;20057;-79
2022/06/28 01:16:37;;;;;;;4.57;2.25;;;;;;;;;;5052706;28;20592;-79
2022/06/28 01:19:05;;;;;;;8.57;2.50;;;;;;;;;;5057657;28;20052;-80
2022/06/28 01:21:34;;;;;;;5.88;2.58;;;;;;;;;;5047288;28;20088;-80
2022/06/28 01:24:01;;;;;;;12.30;3.20;;;;;;;;;;5054737;28;20079;-80
2022/06/28 01:26:30;;;;;;;5.57;2.35;;;;;;;;;;5053371;28;20164;-80
2022/06/28 01:28:57;;;;;;;5.88;2.30;;;;;;;;;;5052314;28;20127;-80
2022/06/28 01:31:25;;;;;;;5.60;2.53;;;;;;;;;;5049455;28;20111;-80
2022/06/28 01:33:53;;;;;;;7.10;2.40;;;;;;;;;;5043009;28;20064;-79
2022/06/28 01:36:21;;;;;;;8.02;3.03;;;;;;;;;;5041848;28;20140;-80
2022/06/28 01:38:48;;;;;;;4.70;2.80;;;;;;;;;;5044866;28;20560;-79
2022/06/28 01:41:34;;;;;;;5.57;2.65;;;;;;;;;;5044041;28;20175;-79
2022/06/28 01:44:03;;;;;;;8.25;2.60;;;;;;;;;;5048211;28;20477;-81
2022/06/28 01:46:31;;;;;;;5.18;3.03;;;;;;;;;;5047198;28;20424;-81
2022/06/28 01:48:58;;;;;;;12.15;3.20;;;;;;;;;;5045145;28;20049;-79
2022/06/28 01:51:26;;;;;;;6.32;2.58;;;;;;;;;;5042844;28;20549;-85
2022/06/28 01:53:53;;;;;;;8.38;2.78;;;;;;;;;;5044411;28;20048;-86
2022/06/28 01:56:21;;;;;;;6.15;2.75;;;;;;;;;;5043849;28;20089;-86
2022/06/28 01:58:48;;;;;;;6.80;2.90;;;;;;;;;;5049248;28;20064;-85
2022/06/28 02:01:16;;;;;;;5.78;2.60;;;;;;;;;;5044012;28;20937;-85
2022/06/28 02:03:43;;;;;;;7.47;1.92;;;;;;;;;;5077954;28;20056;-86
2022/06/28 02:06:11;;;;;;;3.85;2.25;;;;;;;;;;5045589;28;20505;-85
2022/06/28 02:08:38;;;;;;;4.25;2.65;;;;;;;;;;5042711;28;20185;-85
2022/06/28 02:11:06;;;;;;;3.90;2.78;;;;;;;;;;5048012;28;20176;-85
2022/06/28 02:13:36;;;;;;;10.93;2.95;;;;;;;;;;5048335;28;20888;-87
2022/06/28 02:16:03;;;;;;;4.30;2.75;;;;;;;;;;5051544;28;20052;-86
2022/06/28 02:18:31;;;;;;;5.28;3.03;;;;;;;;;;5053440;28;20103;-86
2022/06/28 02:20:58;;;;;;;7.20;2.88;;;;;;;;;;5051186;28;20049;-86
2022/06/28 02:23:26;;;;;;;6.15;2.88;;;;;;;;;;5048380;28;20048;-86
2022/06/28 02:25:54;;;;;;;8.98;3.00;;;;;;;;;;5050764;28;20127;-86
2022/06/28 02:28:21;;;;;;;7.13;3.53;;;;;;;;;;5047545;28;20060;-87
2022/06/28 02:33:17;;;;;;;8.65;3.17;;;;;;;;;;4981878;28;20149;-81
2022/06/28 02:41:16;;;;;;;9.25;5.05;;;;;;;;;;4986946;28;20047;-82
2022/06/28 02:43:43;;;;;;;9.52;4.20;;;;;;;;;;4968790;28;20082;-83
2022/06/28 02:49:02;;;;;;;8.38;4.28;;;;;;;;;;4968432;28;20055;-88
2022/06/28 02:51:30;;;;;;;7.15;3.83;;;;;;;;;;4984763;28;20771;-87
2022/06/28 02:53:57;;;;;;;6.85;3.65;;;;;;;;;;4988337;28;20452;-87
2022/06/28 02:56:25;;;;;;;12.32;3.47;;;;;;;;;;4972721;28;20508;-87
2022/06/28 02:58:52;;;;;;;3.92;3.35;;;;;;;;;;4970411;28;20058;-86
2022/06/28 03:03:48;;;;;;;8.95;3.63;;;;;;;;;;4988353;28;20054;-86
2022/06/28 03:06:15;;;;;;;4.93;3.60;;;;;;;;;;5007251;28;20161;-86
2022/06/28 03:08:43;;;;;;;12.73;3.20;;;;;;;;;;5007333;28;20082;-85
2022/06/28 03:11:10;;;;;;;7.40;3.28;;;;;;;;;;5005866;28;20101;-86
2022/06/28 03:13:37;;;;;;;11.50;3.97;;;;;;;;;;5004611;28;20353;-85
2022/06/28 03:16:05;;;;;;;6.20;3.80;;;;;;;;;;4991310;28;20534;-85
2022/06/28 03:18:32;;;;;;;12.55;3.20;;;;;;;;;;4993400;28;20046;-84
2022/06/28 03:20:59;;;;;;;5.72;3.53;;;;;;;;;;4991708;28;20093;-85
2022/06/28 03:23:27;;;;;;;7.05;3.42;;;;;;;;;;4989653;28;20121;-86
2022/06/28 03:25:54;;;;;;;8.48;3.40;;;;;;;;;;5007513;28;20137;-85
2022/06/28 03:28:21;;;;;;;6.72;3.30;;;;;;;;;;5007677;28;20089;-85
2022/06/28 03:30:52;;;;;;;6.28;3.28;;;;;;;;;;5007230;28;20042;-85
2022/06/28 03:33:19;;;;;;;8.35;4.03;;;;;;;;;;5005999;28;20100;-86
2022/06/28 03:35:46;;;;;;;8.30;3.85;;;;;;;;;;4993702;28;20406;-86
2022/06/28 03:38:14;;;;;;;5.35;3.63;;;;;;;;;;4991997;28;20078;-86
2022/06/28 03:40:41;;;;;;;8.13;3.33;;;;;;;;;;4991636;28;20077;-86
2022/06/28 03:43:08;;;;;;;6.43;4.07;;;;;;;;;;4989241;28;20887;-86
2022/06/28 03:48:34;;;;;;;9.90;3.53;;;;;;;;;;4970644;28;20063;-86
2022/06/28 03:51:01;;;;;;;4.13;2.92;;;;;;;;;;4971870;28;20770;-86
2022/06/28 03:53:29;;;;;;;5.00;2.83;;;;;;;;;;4970335;28;20061;-86
2022/06/28 03:55:56;;;;;;;5.25;2.53;;;;;;;;;;4971521;28;20086;-85
2022/06/28 03:58:24;;;;;;;7.45;2.47;;;;;;;;;;4971164;28;20082;-85
2022/06/28 04:00:51;;;;;;;5.45;2.83;;;;;;;;;;4987885;28;20082;-86
2022/06/28 04:03:19;;;;;;;5.43;2.63;;;;;;;;;;4985432;28;20082;-86
2022/06/28 04:05:46;;;;;;;3.88;2.83;;;;;;;;;;4988039;28;20078;-86
2022/06/28 04:08:13;;;;;;;7.38;2.80;;;;;;;;;;4986778;28;20047;-86
2022/06/28 04:13:45;;;;;;;4.78;2.97;;;;;;;;;;4949183;28;20758;-85
2022/06/28 04:19:32;;;;;;;5.15;3.67;;;;;;;;;;5012493;28;20073;-85
2022/06/28 04:22:00;;;;;;;11.32;3.10;;;;;;;;;;4991322;28;20119;-86
2022/06/28 04:24:27;;;;;;;4.78;3.33;;;;;;;;;;4993871;28;20449;-86
2022/06/28 04:26:54;;;;;;;7.18;3.33;;;;;;;;;;4994032;28;20050;-86
2022/06/28 04:29:22;;;;;;;6.95;3.83;;;;;;;;;;5008084;28;20786;-86
2022/06/28 04:31:49;;;;;;;9.02;3.38;;;;;;;;;;5029285;28;20053;-86
2022/06/28 04:34:16;;;;;;;8.18;3.33;;;;;;;;;;5031042;28;20057;-86
2022/06/28 04:36:44;;;;;;;6.18;3.45;;;;;;;;;;5021787;28;20089;-85
2022/06/28 04:39:12;;;;;;;4.57;3.40;;;;;;;;;;4992682;28;20088;-86
2022/06/28 04:41:44;;;;;;;5.47;3.10;;;;;;;;;;5008519;28;20103;-85
2022/06/28 04:44:11;;;;;;;6.97;2.72;;;;;;;;;;5009660;28;20196;-84
2022/06/28 04:46:38;;;;;;;7.05;3.13;;;;;;;;;;4998529;28;20120;-85
2022/06/28 04:49:07;;;;;;;5.35;3.05;;;;;;;;;;5028204;28;20055;-85
2022/06/28 04:51:34;;;;;;;6.00;2.70;;;;;;;;;;5025414;28;20175;-85
2022/06/28 04:54:02;;;;;;;7.45;3.25;;;;;;;;;;5026322;28;20049;-85
2022/06/28 04:56:30;;;;;;;10.75;2.70;;;;;;;;;;5018241;28;20129;-82
2022/06/28 04:58:57;;;;;;;7.93;2.63;;;;;;;;;;4987162;28;20141;-85
2022/06/28 05:01:24;;;;;;;6.65;2.47;;;;;;;;;;4985700;28;20125;-86
2022/06/28 05:03:52;;;;;;;4.22;2.28;;;;;;;;;;4985172;28;20400;-84
2022/06/28 05:06:19;;;;;;;8.70;2.25;;;;;;;;;;4990375;28;20092;-88
2022/06/28 05:08:53;;;;;;;4.55;2.10;;;;;;;;;;4993721;28;20052;-87
2022/06/28 05:11:38;;;;;;;5.95;2.55;;;;;;;;;;4994562;28;20445;-87
2022/06/28 05:14:06;;;;;;;3.35;2.05;;;;;;;;;;4993007;28;20801;-86
2022/06/28 05:16:33;;;;;;;8.95;2.00;;;;;;;;;;5010525;28;20120;-87
2022/06/28 05:19:01;;;;;;;5.60;2.42;;;;;;;;;;4992957;28;20699;-86
2022/06/28 05:21:28;;;;;;;5.90;2.33;;;;;;;;;;4992020;28;20085;-85
2022/06/28 05:23:57;;;;;;;4.32;2.33;;;;;;;;;;4992689;28;20046;-87
2022/06/28 05:26:25;;;;;;;3.78;2.30;;;;;;;;;;5009086;28;20049;-87
2022/06/28 05:28:52;;;;;;;5.57;2.63;;;;;;;;;;5029408;28;20053;-87
2022/06/28 05:31:20;;;;;;;5.20;2.13;;;;;;;;;;5028977;28;20073;-86
2022/06/28 05:33:48;;;;;;;5.72;2.47;;;;;;;;;;5027362;28;20520;-87
2022/06/28 05:36:16;;;;;;;2.53;1.67;;;;;;;;;;5013108;28;20151;-87
2022/06/28 05:38:44;;;;;;;7.18;2.25;;;;;;;;;;4992139;28;20136;-86
2022/06/28 05:41:11;;;;;;;3.42;1.75;;;;;;;;;;5010137;28;20089;-86
2022/06/28 05:43:38;;;;;;;2.75;1.73;;;;;;;;;;4991994;28;20805;-86
2022/06/28 05:46:06;;;;;;;2.65;1.63;;;;;;;;;;5006333;28;20530;-87
2022/06/28 05:48:33;;;;;;;4.40;1.60;;;;;;;;;;5026786;28;20140;-88
2022/06/28 05:51:01;;;;;;;9.07;1.83;;;;;;;;;;5029480;28;20088;-87
2022/06/28 05:53:28;;;;;;;2.60;1.30;;;;;;;;;;5024917;28;20051;-86
2022/06/28 05:55:55;;;;;;;2.20;1.40;;;;;;;;;;5015428;28;20073;-88
2022/06/28 05:58:23;;;;;;;1.80;1.50;;;;;;;;;;5011145;28;20137;-87
2022/06/28 06:00:50;;;;;;;5.68;1.52;;;;;;;;;;5010141;28;20081;-87
2022/06/28 06:03:17;;;;;;;7.65;1.40;;;;;;;;;;5008531;28;20157;-87
2022/06/28 06:05:45;;;;;;;3.22;1.23;;;;;;;;;;5003127;28;20076;-87
2022/06/28 06:08:12;;;;;;;3.15;1.40;;;;;;;;;;5029969;28;20081;-87
2022/06/28 06:10:40;;;;;;;4.45;1.17;;;;;;;;;;5028233;28;20149;-86
2022/06/28 06:13:07;;;;;;;1.50;1.00;;;;;;;;;;5028593;28;20063;-87
2022/06/28 06:15:34;;;;;;;4.22;0.85;;;;;;;;;;5025968;28;20061;-85
2022/06/28 06:18:05;;;;;;;3.15;1.02;;;;;;;;;;5022876;28;20053;-88
2022/06/28 06:20:32;;;;;;;1.90;1.05;;;;;;;;;;5018905;28;20144;-87
2022/06/28 06:22:59;;;;;;;5.00;0.88;;;;;;;;;;5018625;28;20064;-88
2022/06/28 06:25:27;;;;;;;8.35;1.10;;;;;;;;;;5027554;28;20603;-84
2022/06/28 06:27:54;;;;;;;1.30;1.00;;;;;;;;;;5024712;28;20486;-88
2022/06/28 06:30:21;;;;;;;4.53;1.20;;;;;;;;;;5030153;28;20081;-88
2022/06/28 06:32:49;;;;;;;3.13;1.00;;;;;;;;;;5033939;28;20052;-89
2022/06/28 06:35:16;;;;;;;3.40;0.80;;;;;;;;;;5011294;28;20100;-89
2022/06/28 06:37:43;;;;;;;4.65;0.75;;;;;;;;;;5000311;28;20080;-87
2022/06/28 06:40:11;;;;;;;1.13;0.82;;;;;;;;;;5018151;28;20055;-90
2022/06/28 06:42:38;;;;;;;2.95;1.00;;;;;;;;;;5031774;28;22170;-88
2022/06/28 06:45:07;;;;;;;6.00;1.35;;;;;;;;;;5015806;28;20124;-88
2022/06/28 06:47:34;;;;;;;2.08;1.17;;;;;;;;;;5016914;28;20098;-88
2022/06/28 06:50:07;;;;;;;6.97;1.50;;;;;;;;;;5014841;28;20054;-87
2022/06/28 06:52:35;;;;;;;4.93;1.33;;;;;;;;;;5014520;28;20071;-88
2022/06/28 06:55:04;;;;;;;3.35;1.27;;;;;;;;;;4995983;28;20541;-89
2022/06/28 06:57:31;;;;;;;1.17;1.00;;;;;;;;;;5010643;28;20556;-88
2022/06/28 06:59:59;;;;;;;2.45;1.10;;;;;;;;;;5030109;28;20124;-89
2022/06/28 07:02:26;;;;;;;4.43;1.17;;;;;;;;;;5023647;28;20178;-88
2022/06/28 07:04:53;;;;;;;6.15;0.90;;;;;;;;;;5026750;28;20099;-88
2022/06/28 07:07:22;;;;;;;1.00;0.65;;;;;;;;;;5031971;28;20089;-89
2022/06/28 07:09:50;;;;;;;1.48;1.15;;;;;;;;;;5019974;28;20080;-88
2022/06/28 07:12:18;;;;;;;1.45;0.80;;;;;;;;;;5014300;28;20046;-88
2022/06/28 07:14:45;;;;;;;2.47;0.70;;;;;;;;;;5014799;28;20072;-88
2022/06/28 07:17:12;;;;;;;1.48;0.77;;;;;;;;;;5015419;28;20084;-87
2022/06/28 07:19:40;;;;;;;1.80;0.65;;;;;;;;;;5032597;28;20053;-88
2022/06/28 07:22:07;;;;;;;3.03;0.90;;;;;;;;;;5031231;28;20558;-89
2022/06/28 07:24:35;;;;;;;2.20;0.90;;;;;;;;;;5015171;28;20065;-86
2022/06/28 07:27:02;;;;;;;1.50;0.70;;;;;;;;;;5015130;28;20764;-84
2022/06/28 07:29:29;;;;;;;2.40;0.52;;;;;;;;;;5015022;28;20057;-88
2022/06/28 07:31:57;;;;;;;3.15;0.80;;;;;;;;;;5030610;28;20073;-85
2022/06/28 07:34:24;;;;;;;2.55;0.80;;;;;;;;;;5032231;28;20105;-86
2022/06/28 07:36:51;;;;;;;1.50;0.65;;;;;;;;;;5015332;28;20087;-86
2022/06/28 07:39:19;;;;;;;0.82;0.65;;;;;;;;;;5014918;28;20081;-86
2022/06/28 07:41:46;;;;;;;1.42;0.75;;;;;;;;;;5030087;28;20053;-87
2022/06/28 07:44:13;;;;;;;1.02;0.85;;;;;;;;;;5031642;28;20152;-86
2022/06/28 07:46:41;;;;;;;3.08;0.85;;;;;;;;;;5019299;28;20042;-85
2022/06/28 07:49:08;;;;;;;1.73;0.70;;;;;;;;;;5032231;28;20053;-85
2022/06/28 07:54:21;;;;;;;1.80;0.73;;;;;;;;;;5011988;28;20136;-84
2022/06/28 07:56:49;;;;;;;0.88;0.77;;;;;;;;;;5020277;28;20085;-83
2022/06/28 07:59:16;;;;;;;1.85;0.70;;;;;;;;;;5014353;28;20081;-86
2022/06/28 08:01:43;;;;;;;3.33;1.52;;;;;;;;;;5030426;28;20139;-86
2022/06/28 08:04:11;;;;;;;1.45;0.82;;;;;;;;;;5013562;28;20045;-85
2022/06/28 08:06:39;;;;;;;3.53;0.60;;;;;;;;;;5020000;28;20049;-86
2022/06/28 08:09:06;;;;;;;1.80;0.70;;;;;;;;;;5019392;28;20073;-86
2022/06/28 08:11:34;;;;;;;1.63;0.80;;;;;;;;;;5009685;28;20073;-86
2022/06/28 08:14:01;;;;;;;1.70;0.80;;;;;;;;;;5027335;28;20103;-85
2022/06/28 08:16:29;;;;;;;2.53;0.70;;;;;;;;;;5027242;28;20088;-84
2022/06/28 08:18:57;;;;;;;42.17;4.53;;;;;;;;;;5030555;28;20061;-83
2022/06/28 08:21:24;;;;;;;18.02;2.17;;;;;;;;;;5012132;28;20155;-82
2022/06/28 08:23:52;;;;;;;6.63;1.33;;;;;;;;;;5030336;28;20129;-82
2022/06/28 08:26:20;;;;;;;7.35;1.30;;;;;;;;;;5013407;28;20048;-83
2022/06/28 08:28:48;;;;;;;1.02;0.70;;;;;;;;;;5030662;28;20541;-82
2022/06/28 08:31:15;;;;;;;0.70;0.60;;;;;;;;;;5015427;28;20059;-82
2022/06/28 08:33:42;;;;;;;4.10;0.90;;;;;;;;;;5034410;28;20057;-83
2022/06/28 08:36:10;;;;;;;4.88;0.93;;;;;;;;;;5031094;28;20440;-82
2022/06/28 08:38:37;;;;;;;4.15;0.80;;;;;;;;;;5013934;28;20169;-82
2022/06/28 08:41:06;;;;;;;4.05;1.05;;;;;;;;;;5030516;28;20060;-82
2022/06/28 08:43:36;;;;;;;2.40;1.25;;;;;;;;;;4996697;28;20058;-85
2022/06/28 08:46:03;;;;;;;3.13;0.80;;;;;;;;;;5012012;28;20077;-85
2022/06/28 08:48:34;;;;;;;3.95;0.82;;;;;;;;;;5011471;28;20416;-84
2022/06/28 08:51:02;;;;;;;2.58;1.00;;;;;;;;;;5037408;22;20049;-84
2022/06/28 08:53:30;;;;;;;2.83;1.05;;;;;;;;;;5041778;28;20059;-84
2022/06/28 08:55:58;;;;;;;3.67;0.80;;;;;;;;;;5048987;28;20133;-87
2022/06/28 08:58:27;;;;;;;2.25;0.90;;;;;;;;;;5049095;28;20060;-86
2022/06/28 09:00:54;;;;;;;6.00;0.90;;;;;;;;;;5043209;28;20061;-86
2022/06/28 09:03:22;;;;;;;1.20;1.02;;;;;;;;;;5034582;28;20587;-86
2022/06/28 09:05:49;;;;;;;1.77;0.90;;;;;;;;;;5050639;28;20538;-88
2022/06/28 09:08:17;;;;;;;1.40;0.90;;;;;;;;;;5050367;28;20053;-86
2022/06/28 09:10:44;;;;;;;1.63;0.80;;;;;;;;;;5051925;28;20060;-87
2022/06/28 09:13:17;;;;;;;2.42;0.80;;;;;;;;;;5049764;28;20045;-88
2022/06/28 09:15:48;;;;;;;3.78;1.27;;;;;;;;;;5049972;28;20080;-86
2022/06/28 09:18:16;;;;;;;2.35;0.98;;;;;;;;;;5042710;28;20048;-83
2022/06/28 09:20:44;;;;;;;2.70;0.85;;;;;;;;;;5046741;28;20134;-84
2022/06/28 09:23:44;;;;;;;1.98;0.95;;;;;;;;;;5063241;28;20048;-87
2022/06/28 09:26:13;;;;;;;4.45;0.95;;;;;;;;;;5000959;28;20045;-83
2022/06/28 09:28:41;;;;;;;2.42;1.02;;;;;;;;;;5043666;28;20158;-83
2022/06/28 09:31:16;;;;;;;2.67;1.10;;;;;;;;;;5046999;28;20057;-84
2022/06/28 09:33:43;;;;;;;;;;;;;;;;;;5052264;23;20057;-86
2022/06/28 09:36:12;;;;;;;4.38;1.00;;;;;;;;;;5006964;28;19965;-89
2022/06/28 09:38:40;;;;;;;6.95;1.00;;;;;;;;;;5001585;28;20057;-90
2022/06/28 09:41:18;;;;;;;1.73;1.00;;;;;;;;;;5006253;28;20078;-88
2022/06/28 09:43:52;;;;;;;1.40;0.80;;;;;;;;;;4988797;28;20129;-89
2022/06/28 09:46:21;;;;;;;2.43;0.93;;;;;;;;;;4992437;28;20050;-87
2022/06/28 09:48:49;;;;;;;1.52;1.15;;;;;;;;;;4988072;28;20128;-86
2022/06/28 09:51:25;;;;;;;1.85;0.93;;;;;;;;;;5002920;28;20038;-90
2022/06/28 09:53:52;;;;;;;;;;;;;;;;;;4989013;28;20057;-89
2022/06/28 09:59:09;;;;;;;5.18;0.95;;;;;;;;;;4955690;28;20042;-84
2022/06/28 10:01:37;;;;;;;4.22;1.20;;;;;;;;;;4973101;28;20058;-81
2022/06/28 10:04:05;;;;;;;2.90;1.10;;;;;;;;;;4980735;28;20140;-81
2022/06/28 10:06:32;;;;;;;2.05;0.88;;;;;;;;;;4958112;28;21243;-80
2022/06/28 10:08:59;;;;;;;2.78;1.15;;;;;;;;;;4963260;28;20055;-80
2022/06/28 10:15:01;;;;;;;6.60;1.48;;;;;;;;;;4976540;23;20143;-82
2022/06/28 10:17:05;;;;;;;4.07;1.20;;;;;;;;;;5053175;28;20048;-84
2022/06/28 10:19:42;;;;;;;3.63;1.25;;;;;;;;;;5059283;28;20063;-88
2022/06/28 10:25:04;;;;;;;3.10;0.95;;;;;;;;;;5141007;22;20049;-82
2022/06/28 10:27:43;;;;;;;4.50;0.90;;;;;;;;;;5060380;28;20052;-83
2022/06/28 10:30:18;;;;;;;3.45;1.00;;;;;;;;;;5035347;28;20482;-82
2022/06/28 10:32:50;;;;;;;1.92;0.90;;;;;;;;;;5049972;28;20104;-82
2022/06/28 10:35:29;;;;;;;3.35;1.10;;;;;;;;;;5072361;28;20060;-82
2022/06/28 10:38:10;;;;;;;2.95;0.93;;;;;;;;;;5073493;28;20056;-82
2022/06/28 10:40:49;;;;;;;3.35;1.00;;;;;;;;;;5055422;28;20052;-83
2022/06/28 10:43:36;;;;;;;4.63;1.02;;;;;;;;;;5048738;28;20524;-82
2022/06/28 10:46:06;;;;;;;2.15;1.27;;;;;;;;;;5049840;28;20050;-81
2022/06/28 10:48:56;;;;;;;1.73;0.90;;;;;;;;;;5072729;28;20049;-81
2022/06/28 10:51:24;;;;;;;3.13;0.98;;;;;;;;;;5052485;28;20723;-82
2022/06/28 10:53:57;;;;;;;3.60;1.10;;;;;;;;;;5039046;28;20789;-81
2022/06/28 10:56:25;;;;;;;5.13;1.08;;;;;;;;;;5058399;28;20048;-81
2022/06/28 10:58:55;;;;;;;1.83;0.85;;;;;;;;;;5075376;28;20053;-87
2022/06/28 11:01:43;;;;;;;2.60;1.10;;;;;;;;;;5050321;28;20118;-85
2022/06/28 11:07:27;;;;;;;1.20;0.95;;;;;;;;;;5019646;28;20084;-81
2022/06/28 11:10:04;;;;;;;1.45;1.23;;;;;;;;;;5008462;28;20136;-81
2022/06/28 11:12:38;;;;;;;2.15;0.95;;;;;;;;;;5001171;28;20111;-80
2022/06/28 11:15:06;;;;;;;3.20;1.23;;;;;;;;;;5007266;28;20101;-79
2022/06/28 11:17:43;;;;;;;2.40;0.80;;;;;;;;;;5012200;28;20701;-79
2022/06/28 11:20:11;;;;;;;2.55;1.15;;;;;;;;;;5003841;28;20046;-85
2022/06/28 11:22:40;;;;;;;3.63;1.23;;;;;;;;;;5010267;28;20061;-83
2022/06/28 11:25:09;;;;;;;1.75;1.05;;;;;;;;;;5031343;28;20045;-82
2022/06/28 11:27:43;;;;;;;2.45;1.10;;;;;;;;;;4997704;28;20085;-82
2022/06/28 11:33:40;;;;;;;2.58;1.00;;;;;;;;;;5073961;23;20482;-88
2022/06/28 11:39:42;;;;;;;3.30;1.30;;;;;;;;;;5077469;23;20051;-84
2022/06/28 11:42:09;;;;;;;2.63;1.15;;;;;;;;;;5071098;28;20102;-87
2022/06/28 11:44:37;;;;;;;1.13;1.00;;;;;;;;;;5054777;28;20084;-83
2022/06/28 11:50:16;;;;;;;2.97;1.33;;;;;;;;;;4969947;28;20054;-82
2022/06/28 11:52:49;;;;;;;7.43;1.23;;;;;;;;;;4970549;28;20051;-84
2022/06/28 11:55:18;;;;;;;1.95;1.10;;;;;;;;;;4970532;28;20097;-86
2022/06/28 11:57:45;;;;;;;2.97;1.33;;;;;;;;;;4970741;28;20456;-85
2022/06/28 12:00:14;;;;;;;1.58;1.00;;;;;;;;;;4955751;28;20055;-87
2022/06/28 12:02:43;;;;;;;1.77;1.05;;;;;;;;;;4951976;29;20074;-87
2022/06/28 12:05:13;;;;;;;6.03;1.48;;;;;;;;;;4963553;28;20051;-86
2022/06/28 12:07:51;;;;;;;6.15;1.30;;;;;;;;;;4973505;28;20101;-85
2022/06/28 12:10:25;;;;;;;2.40;1.02;;;;;;;;;;4958877;28;20125;-85
2022/06/28 12:12:55;;;;;;;5.10;1.92;;;;;;;;;;4971917;28;20047;-88
2022/06/28 12:18:07;;;;;;;1.45;1.33;;;;;;;;;;4993126;28;20054;-89
2022/06/28 12:20:35;;;;;;;2.22;1.20;;;;;;;;;;4995483;28;20475;-93
2022/06/28 12:23:06;;;;;;;3.05;1.10;;;;;;;;;;4996413;28;20074;-93
2022/06/28 12:25:35;;;;;;;5.15;1.23;;;;;;;;;;4995612;28;20050;-93
2022/06/28 12:28:02;;;;;;;1.48;1.02;;;;;;;;;;4995901;28;20475;-94
2022/06/28 12:30:30;;;;;;;1.88;1.05;;;;;;;;;;4995893;28;20050;-94
2022/06/28 12:32:59;;;;;;;3.30;1.20;;;;;;;;;;4995275;28;20047;-91
2022/06/28 12:35:26;;;;;;;2.28;1.10;;;;;;;;;;4995930;28;20050;-94
2022/06/28 12:37:55;;;;;;;1.60;1.13;;;;;;;;;;4995074;28;20446;-91
2022/06/28 12:40:24;;;;;;;2.80;1.35;;;;;;;;;;4994608;28;20522;-92
2022/06/28 12:42:51;;;;;;;1.70;1.00;;;;;;;;;;4996530;28;20061;-92
2022/06/28 12:45:19;;;;;;;2.67;1.20;;;;;;;;;;4988572;28;20065;-92
2022/06/28 12:47:46;;;;;;;1.95;1.20;;;;;;;;;;5012479;28;20050;-89
2022/06/28 12:50:16;;;;;;;10.73;1.52;;;;;;;;;;5014968;28;20046;-88
2022/06/28 12:52:44;;;;;;;3.67;1.27;;;;;;;;;;5014778;28;20050;-91
2022/06/28 12:55:12;;;;;;;4.93;1.08;;;;;;;;;;5016582;28;20064;-91
2022/06/28 12:57:40;;;;;;;2.72;1.20;;;;;;;;;;5016105;28;20144;-93
2022/06/28 13:00:10;;;;;;;2.78;1.00;;;;;;;;;;5023309;23;20045;-84
2022/06/28 13:06:00;;;;;;;1.88;0.98;;;;;;;;;;5041482;23;20520;-92
2022/06/28 13:08:27;;;;;;;2.15;1.25;;;;;;;;;;5035398;28;20072;-92
2022/06/28 13:10:55;;;;;;;2.28;0.95;;;;;;;;;;5036190;28;20133;-94
2022/06/28 13:13:22;;;;;;;3.55;1.70;;;;;;;;;;5043528;23;20528;-85
2022/06/28 13:15:50;;;;;;;1.70;1.08;;;;;;;;;;5037752;28;20049;-84
2022/06/28 13:18:17;;;;;;;1.88;1.05;;;;;;;;;;5071720;28;20052;-85
2022/06/28 13:20:45;;;;;;;1.65;1.25;;;;;;;;;;5052466;28;20040;-86
2022/06/28 13:23:12;;;;;;;3.47;1.00;;;;;;;;;;5051784;28;20059;-86
2022/06/28 13:25:40;;;;;;;1.65;1.13;;;;;;;;;;5029564;28;20649;-85
2022/06/28 13:28:08;;;;;;;2.78;1.17;;;;;;;;;;5040792;28;20076;-86
2022/06/28 13:30:41;;;;;;;3.70;1.00;;;;;;;;;;5068047;28;20052;-84
2022/06/28 13:33:09;;;;;;;4.32;1.30;;;;;;;;;;5024243;28;20075;-81
2022/06/28 13:35:36;;;;;;;2.83;1.20;;;;;;;;;;5048449;28;20126;-88
2022/06/28 13:38:04;;;;;;;3.10;1.20;;;;;;;;;;5050474;28;20122;-87
2022/06/28 13:40:33;;;;;;;2.28;1.20;;;;;;;;;;5050297;28;20044;-87
2022/06/28 13:43:02;;;;;;;2.97;1.13;;;;;;;;;;5048417;28;20088;-87
2022/06/28 13:45:30;;;;;;;2.65;1.38;;;;;;;;;;5031804;28;20469;-89
2022/06/28 13:48:02;;;;;;;1.30;1.20;;;;;;;;;;5033629;28;20044;-85
2022/06/28 13:50:29;;;;;;;10.07;1.20;;;;;;;;;;5028460;28;20049;-85
2022/06/28 13:52:59;;;;;;;1.30;1.20;;;;;;;;;;5030940;28;20092;-81
2022/06/28 13:55:32;;;;;;;1.73;1.10;;;;;;;;;;5049133;28;20088;-85
2022/06/28 13:57:59;;;;;;;8.95;1.58;;;;;;;;;;5049079;28;20052;-84
2022/06/28 14:00:28;;;;;;;3.53;1.33;;;;;;;;;;5027362;28;20574;-84
2022/06/28 14:02:56;;;;;;;2.30;1.30;;;;;;;;;;5026576;28;20163;-83
2022/06/28 14:05:23;;;;;;;4.55;1.30;;;;;;;;;;5029245;28;20467;-82
2022/06/28 14:07:51;;;;;;;4.35;1.30;;;;;;;;;;5021979;28;20134;-82
2022/06/28 14:10:18;;;;;;;4.05;1.10;;;;;;;;;;5055709;28;20049;-83
2022/06/28 14:12:46;;;;;;;3.22;1.20;;;;;;;;;;5035370;28;20134;-84
2022/06/28 14:15:13;;;;;;;5.00;1.20;;;;;;;;;;5049201;28;20049;-83
2022/06/28 14:17:41;;;;;;;4.20;1.25;;;;;;;;;;5048868;28;20088;-83
2022/06/28 14:20:09;;;;;;;2.83;1.50;;;;;;;;;;5046520;28;20083;-83
2022/06/28 14:22:37;;;;;;;5.50;1.48;;;;;;;;;;5029976;28;20565;-82
2022/06/28 14:25:12;;;;;;;5.00;1.25;;;;;;;;;;5030953;28;20053;-82
2022/06/28 14:27:40;;;;;;;3.55;1.20;;;;;;;;;;5028950;28;20053;-83
2022/06/28 14:30:26;;;;;;;2.22;1.20;;;;;;;;;;5032996;28;20045;-83
2022/06/28 14:32:53;;;;;;;2.40;1.33;;;;;;;;;;5029608;28;20056;-82
2022/06/28 14:35:26;;;;;;;2.75;1.20;;;;;;;;;;5026512;28;20107;-82
2022/06/28 14:38:14;;;;;;;5.03;1.60;;;;;;;;;;5048553;28;20057;-82
2022/06/28 14:40:42;;;;;;;3.65;1.20;;;;;;;;;;5048470;28;20513;-83
2022/06/28 14:43:10;;;;;;;2.30;1.35;;;;;;;;;;5030726;28;20611;-79
2022/06/28 14:45:39;;;;;;;3.92;1.33;;;;;;;;;;5032528;28;20041;-83
2022/06/28 14:48:23;;;;;;;2.95;1.30;;;;;;;;;;5052270;28;20053;-84
2022/06/28 14:50:51;;;;;;;4.97;1.30;;;;;;;;;;5051510;28;20126;-85
2022/06/28 14:53:19;;;;;;;4.85;1.48;;;;;;;;;;5049359;28;20045;-79
2022/06/28 14:55:49;;;;;;;4.63;1.42;;;;;;;;;;5028691;28;20053;-85
2022/06/28 14:58:17;;;;;;;1.60;1.23;;;;;;;;;;5052479;28;20064;-86
2022/06/28 15:00:44;;;;;;;6.32;1.10;;;;;;;;;;5040029;28;20456;-86
2022/06/28 15:03:11;;;;;;;1.20;1.02;;;;;;;;;;5032126;28;20421;-80
2022/06/28 15:05:39;;;;;;;5.07;1.50;;;;;;;;;;5034904;28;20048;-79
2022/06/28 15:08:07;;;;;;;2.17;1.30;;;;;;;;;;5051583;28;20051;-79
2022/06/28 15:10:36;;;;;;;2.67;1.60;;;;;;;;;;5033799;28;20077;-79
2022/06/28 15:13:03;;;;;;;3.42;1.50;;;;;;;;;;5043571;28;20069;-79
2022/06/28 15:15:31;;;;;;;2.63;1.48;;;;;;;;;;5053064;28;20127;-79
2022/06/28 15:17:58;;;;;;;2.08;1.10;;;;;;;;;;5062559;28;20048;-78
2022/06/28 15:20:26;;;;;;;4.72;1.65;;;;;;;;;;5043637;28;20689;-78
2022/06/28 15:31:19;;;;;;;2.75;1.40;;;;;;;;;;5020704;28;20052;-79
2022/06/28 15:33:47;;;;;;;6.05;1.88;;;;;;;;;;5048835;28;20048;-81
2022/06/28 15:36:14;;;;;;;5.82;2.00;;;;;;;;;;5050244;28;20511;-81
2022/06/28 15:38:41;;;;;;;3.22;1.05;;;;;;;;;;5027669;28;20053;-80
2022/06/28 15:41:09;;;;;;;1.83;1.27;;;;;;;;;;5048112;28;20143;-82
2022/06/28 15:43:36;;;;;;;7.63;1.25;;;;;;;;;;5043574;28;20139;-80
2022/06/28 15:46:05;;;;;;;2.60;1.38;;;;;;;;;;5032184;28;20465;-80
2022/06/28 15:48:32;;;;;;;2.80;1.33;;;;;;;;;;5029683;28;20034;-79
2022/06/28 15:51:00;;;;;;;3.78;1.20;;;;;;;;;;5029025;28;20049;-80
2022/06/28 15:53:28;;;;;;;1.45;1.02;;;;;;;;;;5028095;28;20040;-81
2022/06/28 15:55:55;;;;;;;3.20;1.35;;;;;;;;;;5043579;28;20648;-80
2022/06/28 15:58:24;;;;;;;5.72;1.40;;;;;;;;;;5041934;28;20111;-80
2022/06/28 16:00:51;;;;;;;3.83;1.75;;;;;;;;;;5046766;28;20056;-79